createdAt,value
2022-12-22T00:00:07.196Z,62.44
2022-12-22T00:01:36.583Z,62.37
2022-12-22T00:03:05.487Z,62.77
2022-12-22T00:04:34.019Z,63.11
2022-12-22T00:06:00.868Z,62.75
2022-12-22T00:07:27.658Z,63.12
2022-12-22T00:08:57.913Z,63.18
2022-12-22T00:10:25.050Z,63.67
2022-12-22T00:13:29.650Z,63.82
2022-12-22T00:14:58.055Z,63.67
2022-12-22T00:16:27.654Z,63.75
2022-12-22T00:17:55.410Z,63.70
2022-12-22T00:19:26.137Z,63.98
2022-12-22T00:20:53.346Z,64.07
2022-12-22T00:22:28.094Z,63.79
2022-12-22T00:23:55.455Z,63.84
2022-12-22T00:26:58.120Z,63.90
2022-12-22T00:28:30.091Z,63.98
2022-12-22T00:30:00.359Z,63.59
2022-12-22T00:31:28.850Z,63.61
2022-12-22T00:32:57.582Z,64.08
2022-12-22T00:34:35.348Z,64.12
2022-12-22T00:36:03.256Z,64.54
2022-12-22T00:37:32.047Z,64.01
2022-12-22T00:38:59.672Z,64.15
2022-12-22T00:40:37.424Z,63.98
2022-12-22T00:42:04.740Z,64.36
2022-12-22T00:43:32.409Z,64.95
2022-12-22T00:45:01.117Z,65.11
2022-12-22T00:46:32.074Z,64.96
2022-12-22T00:47:59.830Z,64.83
2022-12-22T00:49:27.248Z,64.49
2022-12-22T00:50:55.082Z,64.51
2022-12-22T00:53:57.507Z,64.21
2022-12-22T00:55:33.934Z,64.31
2022-12-22T00:57:02.186Z,64.30
2022-12-22T00:58:35.432Z,64.12
2022-12-22T01:00:04.377Z,64.57
2022-12-22T01:01:31.652Z,64.26
2022-12-22T01:02:59.379Z,64.66
2022-12-22T01:04:29.953Z,65.03
2022-12-22T01:05:59.468Z,65.46
2022-12-22T01:07:39.106Z,65.84
2022-12-22T01:09:07.588Z,66.18
2022-12-22T01:10:35.402Z,65.79
2022-12-22T01:12:03.431Z,66.16
2022-12-22T01:13:32.841Z,65.99
2022-12-22T01:15:01.932Z,65.47
2022-12-22T01:16:33.379Z,65.48
2022-12-22T01:18:00.706Z,65.21
2022-12-22T01:19:28.032Z,65.62
2022-12-22T01:20:57.049Z,64.89
2022-12-22T01:22:31.269Z,65.35
2022-12-22T01:23:58.953Z,65.68
2022-12-22T01:25:32.922Z,65.72
2022-12-22T01:27:01.060Z,65.78
2022-12-22T01:28:36.424Z,65.22
2022-12-22T01:30:05.980Z,65.17
2022-12-22T01:31:39.917Z,65.58
2022-12-22T01:33:07.198Z,65.55
2022-12-22T01:36:16.499Z,65.37
2022-12-22T01:37:43.311Z,65.24
2022-12-22T01:39:11.443Z,65.13
2022-12-22T01:40:42.286Z,64.97
2022-12-22T01:42:10.174Z,64.84
2022-12-22T01:43:46.314Z,64.76
2022-12-22T01:45:14.689Z,64.42
2022-12-22T01:46:52.656Z,64.59
2022-12-22T01:48:19.972Z,64.66
2022-12-22T01:49:53.844Z,64.63
2022-12-22T01:51:25.111Z,64.95
2022-12-22T01:52:54.591Z,65.17
2022-12-22T01:54:22.593Z,65.56
2022-12-22T01:55:49.807Z,65.58
2022-12-22T01:57:20.221Z,65.38
2022-12-22T01:58:51.552Z,65.64
2022-12-22T02:00:19.614Z,65.83
2022-12-22T02:01:50.805Z,65.61
2022-12-22T02:03:19.859Z,66.04
2022-12-22T02:04:58.934Z,66.11
2022-12-22T02:06:59.810Z,66.03
2022-12-22T02:08:45.046Z,66.02
2022-12-22T02:10:31.759Z,66.44
2022-12-22T02:13:46.205Z,66.16
2022-12-22T02:15:24.676Z,66.34
2022-12-22T02:16:59.447Z,65.52
2022-12-22T02:18:48.997Z,65.79
2022-12-22T06:14:22.679Z,78.29
2022-12-22T06:15:32.669Z,77.97
2022-12-22T06:16:41.375Z,77.39
2022-12-22T06:17:51.146Z,76.87
2022-12-22T06:19:00.352Z,76.03
2022-12-22T06:20:10.909Z,75.78
2022-12-22T06:21:20.462Z,74.81
2022-12-22T06:22:29.925Z,74.08
2022-12-22T06:23:38.475Z,74.13
2022-12-22T06:24:47.300Z,72.52
2022-12-22T06:25:58.460Z,72.77
2022-12-22T06:28:22.364Z,72.45
2022-12-22T06:29:31.574Z,71.93
2022-12-22T06:30:41.293Z,71.00
2022-12-22T06:33:05.890Z,69.26
2022-12-22T06:34:16.916Z,68.46
2022-12-22T06:35:25.536Z,69.09
2022-12-22T06:36:34.822Z,68.82
2022-12-22T06:37:43.688Z,67.34
2022-12-22T06:40:08.970Z,68.82
2022-12-22T06:41:21.295Z,68.13
2022-12-22T06:42:49.601Z,67.54
2022-12-22T06:43:59.420Z,67.43
2022-12-22T06:45:10.276Z,67.55
2022-12-22T06:46:27.215Z,68.16
2022-12-22T06:47:36.817Z,68.33
2022-12-22T06:48:45.655Z,68.93
2022-12-22T06:49:54.512Z,68.82
2022-12-22T06:51:05.583Z,68.54
2022-12-22T06:52:14.585Z,68.06
2022-12-22T06:53:24.164Z,67.78
2022-12-22T06:54:33.030Z,68.37
2022-12-22T06:56:57.338Z,68.10
2022-12-22T06:58:07.303Z,67.61
2022-12-22T06:59:16.546Z,67.51
2022-12-22T07:01:43.444Z,68.52
2022-12-22T07:02:52.912Z,67.64
2022-12-22T07:04:03.131Z,67.87
2022-12-22T07:05:13.589Z,68.13
2022-12-22T07:06:22.918Z,68.79
2022-12-22T07:07:31.579Z,68.95
2022-12-22T07:08:40.091Z,69.14
2022-12-22T07:09:48.607Z,69.93
2022-12-22T07:12:12.851Z,70.46
2022-12-22T07:13:23.361Z,71.05
2022-12-22T07:14:32.358Z,71.19
2022-12-22T07:16:57.834Z,71.27
2022-12-22T07:18:06.462Z,71.04
2022-12-22T07:19:14.952Z,71.13
2022-12-22T07:20:24.825Z,70.16
2022-12-22T07:21:33.731Z,69.83
2022-12-22T07:22:42.247Z,69.46
2022-12-22T07:23:51.364Z,69.35
2022-12-22T07:25:00.495Z,68.90
2022-12-22T07:26:11.356Z,68.91
2022-12-22T07:27:21.049Z,68.89
2022-12-22T07:28:34.124Z,68.83
2022-12-22T07:29:42.798Z,69.40
2022-12-22T07:30:58.636Z,69.46
2022-12-22T07:32:08.914Z,69.33
2022-12-22T07:34:34.092Z,70.59
2022-12-22T07:36:58.709Z,70.08
2022-12-22T07:38:12.466Z,70.50
2022-12-22T07:39:22.185Z,70.42
2022-12-22T07:42:05.579Z,69.24
2022-12-22T07:43:14.890Z,68.71
2022-12-22T07:45:39.072Z,67.58
2022-12-22T07:46:48.192Z,66.80
2022-12-22T07:48:02.879Z,66.68
2022-12-22T07:49:30.767Z,66.08
2022-12-22T07:50:40.388Z,66.13
2022-12-22T07:51:49.640Z,66.85
2022-12-22T07:53:01.878Z,67.12
2022-12-22T07:54:13.520Z,65.33
2022-12-22T07:55:23.944Z,65.50
2022-12-22T07:56:33.850Z,65.74
2022-12-22T07:57:43.396Z,66.02
2022-12-22T07:58:52.530Z,66.86
2022-12-22T08:00:01.874Z,66.62
2022-12-22T08:02:56.260Z,67.82
2022-12-22T08:04:05.114Z,68.44
2022-12-22T08:06:33.589Z,68.16
2022-12-22T08:07:42.634Z,68.31
2022-12-22T08:08:53.092Z,68.93
2022-12-22T08:11:16.843Z,69.20
2022-12-22T08:12:25.880Z,68.76
2022-12-22T08:13:35.964Z,68.92
2022-12-22T08:16:10.919Z,68.76
2022-12-22T08:17:19.822Z,68.94
2022-12-22T08:19:46.081Z,69.12
2022-12-22T08:20:55.811Z,69.39
2022-12-22T08:22:04.389Z,69.84
2022-12-22T08:24:29.777Z,69.88
2022-12-22T08:25:41.093Z,69.44
2022-12-22T08:26:54.104Z,69.34
2022-12-22T08:28:04.771Z,68.94
2022-12-22T08:30:46.015Z,68.93
2022-12-22T08:31:57.828Z,69.08
2022-12-22T08:33:06.960Z,68.44
2022-12-22T08:34:16.282Z,67.63
2022-12-22T08:35:25.061Z,67.62
2022-12-22T08:37:53.635Z,68.00
2022-12-22T08:39:03.236Z,67.82
2022-12-22T08:41:50.412Z,67.56
2022-12-22T08:43:01.679Z,67.41
2022-12-22T08:44:11.283Z,66.64
2022-12-22T08:46:35.219Z,66.54
2022-12-22T08:47:43.910Z,66.78
2022-12-22T08:48:54.823Z,66.40
2022-12-22T08:50:04.025Z,66.66
2022-12-22T08:52:28.446Z,66.95
2022-12-22T08:54:03.948Z,66.98
2022-12-22T08:56:05.119Z,66.21
2022-12-22T08:57:13.533Z,66.46
2022-12-22T08:58:22.935Z,66.47
2022-12-22T08:59:32.388Z,66.40
2022-12-22T09:01:56.944Z,66.10
2022-12-22T09:03:05.682Z,66.05
2022-12-22T09:05:33.953Z,64.76
2022-12-22T09:06:43.989Z,65.05
2022-12-22T09:07:52.688Z,65.59
2022-12-22T09:09:05.633Z,65.58
2022-12-22T09:10:16.219Z,65.26
2022-12-22T09:12:47.819Z,65.57
2022-12-22T09:14:00.486Z,65.02
2022-12-22T09:15:10.267Z,64.30
2022-12-22T09:16:20.905Z,64.58
2022-12-22T09:17:30.339Z,64.83
2022-12-22T09:18:39.541Z,64.96
2022-12-22T09:19:48.676Z,64.54
2022-12-22T09:20:59.669Z,64.52
2022-12-22T09:22:09.034Z,64.48
2022-12-22T09:23:18.368Z,64.41
2022-12-22T09:24:28.137Z,64.73
2022-12-22T09:25:36.676Z,64.44
2022-12-22T09:28:01.455Z,64.20
2022-12-22T09:29:11.366Z,64.32
2022-12-22T09:31:44.640Z,64.16
2022-12-22T09:32:55.315Z,64.17
2022-12-22T09:34:04.446Z,63.71
2022-12-22T09:35:14.835Z,63.55
2022-12-22T09:36:26.999Z,63.99
2022-12-22T09:37:37.153Z,64.53
2022-12-22T09:40:09.333Z,63.99
2022-12-22T09:41:31.524Z,64.29
2022-12-22T09:42:41.139Z,64.28
2022-12-22T09:45:11.117Z,64.35
2022-12-22T09:47:41.296Z,64.11
2022-12-22T09:50:08.726Z,63.18
2022-12-22T09:52:39.415Z,63.41
2022-12-22T09:55:26.062Z,63.98
2022-12-22T09:56:35.801Z,63.53
2022-12-22T09:57:45.512Z,63.11
2022-12-22T09:58:56.548Z,63.32
2022-12-22T10:00:16.041Z,63.91
2022-12-22T10:01:52.035Z,64.34
2022-12-22T10:04:55.029Z,63.45
2022-12-22T10:06:23.244Z,63.92
2022-12-22T10:07:35.983Z,63.62
2022-12-22T10:08:44.724Z,63.51
2022-12-22T10:11:15.957Z,62.96
2022-12-22T10:12:26.205Z,63.16
2022-12-22T10:14:53.991Z,63.46
2022-12-22T10:16:22.209Z,62.97
2022-12-22T10:17:38.935Z,63.36
2022-12-22T10:19:03.539Z,63.72
2022-12-22T10:21:46.938Z,64.22
2022-12-22T10:23:01.702Z,64.31
2022-12-22T10:24:29.987Z,64.16
2022-12-22T10:27:21.987Z,64.96
2022-12-22T10:28:37.961Z,65.03
2022-12-22T10:29:46.708Z,65.15
2022-12-22T10:31:17.831Z,65.32
2022-12-22T10:32:28.287Z,65.67
2022-12-22T10:33:45.889Z,65.60
2022-12-22T10:35:03.821Z,65.76
2022-12-22T10:36:14.987Z,65.82
2022-12-22T10:38:59.869Z,65.89
2022-12-22T10:40:22.032Z,66.04
2022-12-22T10:41:44.384Z,65.75
2022-12-22T10:42:55.499Z,65.68
2022-12-22T10:44:11.480Z,65.38
2022-12-22T10:45:23.412Z,65.05
2022-12-22T10:46:40.759Z,65.50
2022-12-22T10:50:27.327Z,66.08
2022-12-22T10:51:36.252Z,65.75
2022-12-22T10:52:55.048Z,65.59
2022-12-22T10:55:22.620Z,65.79
2022-12-22T10:56:33.646Z,65.67
2022-12-22T10:57:43.297Z,65.46
2022-12-22T11:00:31.821Z,65.53
2022-12-22T11:01:40.906Z,65.28
2022-12-22T11:02:56.587Z,65.52
2022-12-22T11:04:25.754Z,65.48
2022-12-22T11:05:35.916Z,65.89
2022-12-22T11:06:45.832Z,65.98
2022-12-22T11:07:56.404Z,65.68
2022-12-22T11:09:31.979Z,65.73
2022-12-22T11:12:23.415Z,65.75
2022-12-22T11:13:53.787Z,65.58
2022-12-22T11:15:27.023Z,65.69
2022-12-22T11:17:00.251Z,65.95
2022-12-22T11:20:03.595Z,66.32
2022-12-22T11:21:33.745Z,66.22
2022-12-22T11:24:22.196Z,66.22
2022-12-22T11:25:57.562Z,66.47
2022-12-22T11:27:42.343Z,66.32
2022-12-22T11:28:53.122Z,66.54
2022-12-22T11:30:12.892Z,66.16
2022-12-22T11:31:38.399Z,66.01
2022-12-22T11:32:59.536Z,66.36
2022-12-22T11:34:42.676Z,65.50
2022-12-22T11:36:10.149Z,65.75
2022-12-22T11:37:48.721Z,66.02
2022-12-22T11:39:07.427Z,66.14
2022-12-22T11:40:20.345Z,66.00
2022-12-22T11:43:16.669Z,65.39
2022-12-22T11:45:57.443Z,64.75
2022-12-22T11:47:28.868Z,64.88
2022-12-22T11:49:07.901Z,64.87
2022-12-22T11:52:09.957Z,64.47
2022-12-22T11:53:46.107Z,64.62
2022-12-22T11:56:44.416Z,64.96
2022-12-22T11:58:15.422Z,65.00
2022-12-22T12:01:41.085Z,64.87
2022-12-22T12:03:16.402Z,64.76
2022-12-22T12:06:22.159Z,64.44
2022-12-22T12:10:22.552Z,64.07
2022-12-22T12:13:38.713Z,65.36
2022-12-22T12:15:26.216Z,65.69
2022-12-22T12:16:55.777Z,66.12
2022-12-22T12:21:23.981Z,66.05
2022-12-22T12:24:29.947Z,66.98
2022-12-22T12:29:07.605Z,67.77
2022-12-22T12:31:34.398Z,68.50
2022-12-22T12:34:23.240Z,68.76
2022-12-22T12:37:10.634Z,69.10
2022-12-22T12:40:18.063Z,69.08
2022-12-22T12:41:43.279Z,69.25
2022-12-22T12:42:53.949Z,69.08
2022-12-22T12:44:05.248Z,69.20
2022-12-22T12:48:29.536Z,68.73
2022-12-22T12:51:01.705Z,68.41
2022-12-22T12:52:11.680Z,68.41
2022-12-22T12:53:23.216Z,68.49
2022-12-22T12:54:39.638Z,67.73
2022-12-22T12:55:58.299Z,68.31
2022-12-22T12:57:25.885Z,68.13
2022-12-22T13:00:00.001Z,67.91
2022-12-22T13:02:37.064Z,67.84
2022-12-22T13:04:03.238Z,68.11
2022-12-22T13:06:52.095Z,67.57
2022-12-22T13:09:51.231Z,67.92
2022-12-22T13:10:57.989Z,68.00
2022-12-22T13:12:40.793Z,68.15
2022-12-22T13:15:08.689Z,68.18
2022-12-22T13:16:23.498Z,68.07
2022-12-22T13:17:36.014Z,67.40
2022-12-22T13:18:50.815Z,66.95
2022-12-22T13:19:58.407Z,67.38
2022-12-22T13:21:52.448Z,67.27
2022-12-22T13:22:38.711Z,67.55
2022-12-22T13:25:17.071Z,67.48
2022-12-22T13:26:36.539Z,67.86
2022-12-22T13:27:47.150Z,67.92
2022-12-22T13:30:22.025Z,67.62
2022-12-22T13:33:08.627Z,67.47
2022-12-22T13:34:21.980Z,67.09
2022-12-22T13:35:47.150Z,66.97
2022-12-22T13:38:31.130Z,67.15
2022-12-22T13:39:39.824Z,66.70
2022-12-22T13:40:50.098Z,67.37
2022-12-22T13:41:59.039Z,66.93
2022-12-22T13:43:17.645Z,67.17
2022-12-22T13:44:32.930Z,67.08
2022-12-22T13:45:50.147Z,66.80
2022-12-22T13:48:30.209Z,66.75
2022-12-22T13:50:07.699Z,66.90
2022-12-22T13:50:57.041Z,66.82
2022-12-22T13:54:53.829Z,66.85
2022-12-22T13:57:23.667Z,66.21
2022-12-22T13:58:41.159Z,65.92
2022-12-22T13:59:53.506Z,66.06
2022-12-22T14:02:22.131Z,66.10
2022-12-22T14:05:08.835Z,66.29
2022-12-22T14:06:30.641Z,66.40
2022-12-22T14:07:39.966Z,66.11
2022-12-22T14:10:06.093Z,66.39
2022-12-22T14:11:15.489Z,66.29
2022-12-22T14:13:56.933Z,66.53
2022-12-22T14:15:10.046Z,66.34
2022-12-22T14:16:19.992Z,66.06
2022-12-22T14:17:32.202Z,65.85
2022-12-22T14:18:41.642Z,66.09
2022-12-22T14:19:56.431Z,65.41
2022-12-22T14:21:08.696Z,65.83
2022-12-22T14:23:43.264Z,66.21
2022-12-22T14:25:02.017Z,66.35
2022-12-22T14:27:47.968Z,66.59
2022-12-22T14:28:58.424Z,65.96
2022-12-22T14:30:24.362Z,65.63
2022-12-22T14:31:34.159Z,66.18
2022-12-22T14:32:55.386Z,66.03
2022-12-22T14:35:43.888Z,65.73
2022-12-22T14:36:53.994Z,65.82
2022-12-22T14:38:23.282Z,65.73
2022-12-22T14:40:54.627Z,66.53
2022-12-22T14:42:04.639Z,66.65
2022-12-22T14:46:09.308Z,66.35
2022-12-22T14:47:23.731Z,66.30
2022-12-22T14:51:20.207Z,67.01
2022-12-22T14:52:39.326Z,67.03
2022-12-22T14:53:55.376Z,66.86
2022-12-22T14:55:08.481Z,66.31
2022-12-22T14:57:36.449Z,66.43
2022-12-22T14:58:48.051Z,66.61
2022-12-22T15:02:50.219Z,66.03
2022-12-22T15:04:05.869Z,66.22
2022-12-22T15:07:24.132Z,66.52
2022-12-22T15:10:17.991Z,66.14
2022-12-22T15:11:18.392Z,65.64
2022-12-22T15:12:27.710Z,65.73
2022-12-22T15:14:52.366Z,66.29
2022-12-22T15:17:21.780Z,65.68
2022-12-22T15:18:33.838Z,66.15
2022-12-22T15:19:42.921Z,66.36
2022-12-22T15:22:07.827Z,66.45
2022-12-22T15:23:17.438Z,66.20
2022-12-22T15:24:26.822Z,66.50
2022-12-22T15:25:35.567Z,66.38
2022-12-22T15:28:01.009Z,65.80
2022-12-22T15:29:11.240Z,65.67
2022-12-22T15:30:28.656Z,66.11
2022-12-22T15:31:39.792Z,66.25
2022-12-22T15:32:48.913Z,66.29
2022-12-22T15:35:20.083Z,65.72
2022-12-22T15:36:29.649Z,65.88
2022-12-22T15:37:39.250Z,65.70
2022-12-22T15:38:48.299Z,65.42
2022-12-22T15:39:58.017Z,65.50
2022-12-22T15:42:23.681Z,65.47
2022-12-22T15:44:47.197Z,65.22
2022-12-22T15:45:57.031Z,65.08
2022-12-22T15:47:10.945Z,65.27
2022-12-22T15:48:28.952Z,65.00
2022-12-22T15:49:38.499Z,65.41
2022-12-22T15:52:03.915Z,65.57
2022-12-22T15:54:32.959Z,64.81
2022-12-22T15:55:46.578Z,65.40
2022-12-22T15:58:15.450Z,65.02
2022-12-22T16:00:44.559Z,64.96
2022-12-22T16:02:00.479Z,65.34
2022-12-22T16:04:21.681Z,65.28
2022-12-22T16:06:46.612Z,65.35
2022-12-22T16:07:56.090Z,65.31
2022-12-22T16:10:30.697Z,65.82
2022-12-22T16:11:40.565Z,66.04
2022-12-22T16:13:00.863Z,65.89
2022-12-22T16:14:12.862Z,65.95
2022-12-22T16:15:22.122Z,65.73
2022-12-22T16:17:47.031Z,65.36
2022-12-22T16:18:57.908Z,65.44
2022-12-22T16:20:07.260Z,65.17
2022-12-22T16:21:19.614Z,65.14
2022-12-22T16:23:50.473Z,64.45
2022-12-22T16:25:02.859Z,64.74
2022-12-22T16:26:19.199Z,64.77
2022-12-22T16:28:44.584Z,64.50
2022-12-22T16:29:54.099Z,64.70
2022-12-22T16:31:06.126Z,64.74
2022-12-22T16:32:18.766Z,64.24
2022-12-22T16:33:28.708Z,64.48
2022-12-22T16:34:37.487Z,64.36
2022-12-22T16:37:01.774Z,64.21
2022-12-22T16:38:18.001Z,63.95
2022-12-22T16:39:21.835Z,64.28
2022-12-22T16:40:33.097Z,64.59
2022-12-22T16:45:58.202Z,64.87
2022-12-22T16:47:23.682Z,64.68
2022-12-22T16:50:07.908Z,64.97
2022-12-22T16:52:52.612Z,65.46
2022-12-22T16:54:02.602Z,65.63
2022-12-22T16:55:17.436Z,65.79
2022-12-22T16:56:28.329Z,65.58
2022-12-22T16:57:37.435Z,65.79
2022-12-22T16:58:46.850Z,65.71
2022-12-22T16:59:55.871Z,65.66
2022-12-22T17:01:05.519Z,65.69
2022-12-22T17:03:42.619Z,65.64
2022-12-22T17:04:54.318Z,65.61
2022-12-22T17:06:05.099Z,65.69
2022-12-22T17:07:14.771Z,65.67
2022-12-22T17:09:46.647Z,65.90
2022-12-22T17:13:32.339Z,66.97
2022-12-22T17:14:41.368Z,67.49
2022-12-22T17:17:07.293Z,67.63
2022-12-22T17:18:19.125Z,67.83
2022-12-22T17:19:28.295Z,67.99
2022-12-22T17:20:37.862Z,68.25
2022-12-22T17:21:47.574Z,68.36
2022-12-22T17:23:02.198Z,68.33
2022-12-22T17:24:14.588Z,68.62
2022-12-22T17:25:30.932Z,68.72
2022-12-22T17:26:39.657Z,68.99
2022-12-22T17:27:48.566Z,68.59
2022-12-22T17:28:58.316Z,68.51
2022-12-22T17:31:27.395Z,68.14
2022-12-22T17:32:35.955Z,68.34
2022-12-22T17:33:44.600Z,68.60
2022-12-22T17:34:53.120Z,68.59
2022-12-22T17:36:03.403Z,68.82
2022-12-22T17:38:33.964Z,68.91
2022-12-22T17:39:45.206Z,69.09
2022-12-22T17:42:22.549Z,68.94
2022-12-22T17:43:31.886Z,69.06
2022-12-22T17:44:40.708Z,68.96
2022-12-22T17:45:50.356Z,68.96
2022-12-22T23:21:35.608Z,84.13
2022-12-22T23:24:01.014Z,83.66
2022-12-22T23:25:11.516Z,82.74
2022-12-22T23:27:35.552Z,81.04
2022-12-22T23:28:44.608Z,80.30
2022-12-22T23:29:53.277Z,78.70
2022-12-22T23:31:02.727Z,77.44
2022-12-22T23:32:11.925Z,78.10
2022-12-22T23:33:21.744Z,78.04
2022-12-22T23:34:32.080Z,77.63
2022-12-22T23:35:43.852Z,76.66
2022-12-22T23:36:54.009Z,75.70
2022-12-22T23:38:04.839Z,74.20
2022-12-22T23:39:14.685Z,74.45
2022-12-22T23:40:51.146Z,73.25
2022-12-22T23:41:37.294Z,71.88
2022-12-22T23:42:49.427Z,71.32
2022-12-22T23:43:57.464Z,71.22
2022-12-22T23:46:23.155Z,70.58
2022-12-22T23:48:54.348Z,70.69
2022-12-22T23:50:04.377Z,69.46
2022-12-22T23:51:13.325Z,70.21
2022-12-22T23:52:22.123Z,70.27
2022-12-22T23:53:31.249Z,70.31
2022-12-22T23:54:40.268Z,69.63
2022-12-22T23:57:05.112Z,67.00
2022-12-22T23:58:15.569Z,67.62
2022-12-22T23:59:24.473Z,68.76
